createdAt,value
2019-02-25T00:01:36.555Z,36.00
2019-02-25T00:04:08.051Z,28.10
2019-02-25T00:06:39.563Z,35.38
2019-02-25T00:09:10.905Z,28.65
2019-02-25T00:11:42.669Z,26.62
2019-02-25T00:14:13.994Z,21.75
2019-02-25T00:16:45.446Z,19.45
2019-02-25T00:19:16.771Z,19.10
2019-02-25T00:21:48.248Z,29.50
2019-02-25T00:24:19.558Z,16.65
2019-02-25T00:26:50.923Z,18.95
2019-02-25T00:29:22.334Z,22.13
2019-02-25T00:31:53.595Z,26.95
2019-02-25T00:34:24.990Z,24.72
2019-02-25T00:36:56.441Z,34.20
2019-02-25T00:39:27.754Z,26.45
2019-02-25T00:41:59.113Z,22.20
2019-02-25T00:44:30.598Z,22.82
2019-02-25T00:47:02.022Z,23.50
2019-02-25T00:49:33.601Z,25.52
2019-02-25T00:52:05.070Z,26.68
2019-02-25T00:54:36.593Z,20.08
2019-02-25T00:57:09.017Z,21.23
2019-02-25T00:59:41.039Z,24.15
2019-02-25T01:02:12.396Z,24.00
2019-02-25T01:04:43.646Z,32.42
2019-02-25T01:07:14.963Z,26.50
2019-02-25T01:09:46.422Z,27.02
2019-02-25T01:12:17.913Z,25.17
2019-02-25T01:14:49.308Z,20.30
2019-02-25T01:17:20.765Z,27.30
2019-02-25T01:19:51.990Z,24.55
2019-02-25T01:22:23.325Z,33.75
2019-02-25T01:24:54.662Z,18.75
2019-02-25T01:27:26.167Z,20.32
2019-02-25T01:29:57.496Z,27.60
2019-02-25T01:32:29.004Z,26.12
2019-02-25T01:35:00.330Z,18.12
2019-02-25T01:37:31.956Z,39.30
2019-02-25T01:40:03.510Z,37.30
2019-02-25T01:42:34.812Z,43.65
2019-02-25T01:45:09.337Z,37.90
2019-02-25T01:47:40.724Z,44.18
2019-02-25T01:50:12.208Z,31.57
2019-02-25T01:52:43.528Z,28.47
2019-02-25T01:55:14.869Z,29.27
2019-02-25T01:57:46.227Z,32.17
2019-02-25T02:00:18.798Z,35.20
2019-02-25T02:02:50.263Z,29.60
2019-02-25T02:05:21.687Z,26.75
2019-02-25T02:07:53.020Z,30.72
2019-02-25T02:10:24.345Z,25.97
2019-02-25T02:12:55.689Z,30.30
2019-02-25T02:15:27.355Z,26.75
2019-02-25T02:17:58.864Z,29.70
2019-02-25T02:20:30.206Z,34.05
2019-02-25T02:23:01.546Z,23.55
2019-02-25T02:25:32.992Z,23.00
2019-02-25T02:28:04.335Z,23.65
2019-02-25T02:30:35.674Z,34.03
2019-02-25T02:33:07.095Z,29.90
2019-02-25T02:35:38.500Z,21.05
2019-02-25T02:38:09.827Z,28.42
2019-02-25T02:40:41.193Z,28.35
2019-02-25T02:43:12.526Z,26.73
2019-02-25T02:45:49.707Z,32.28
2019-02-25T02:48:24.328Z,26.85
2019-02-25T02:50:55.639Z,29.35
2019-02-25T02:53:26.964Z,27.52
2019-02-25T02:55:58.358Z,24.63
2019-02-25T02:58:29.847Z,26.30
2019-02-25T03:01:01.318Z,34.55
2019-02-25T03:03:32.644Z,25.52
2019-02-25T03:06:04.021Z,25.97
2019-02-25T03:08:35.398Z,31.70
2019-02-25T03:11:06.724Z,22.45
2019-02-25T03:13:38.160Z,31.15
2019-02-25T03:16:09.594Z,28.07
2019-02-25T03:18:40.953Z,28.07
2019-02-25T03:21:12.242Z,30.57
2019-02-25T03:23:43.577Z,34.90
2019-02-25T03:26:16.000Z,31.37
2019-02-25T03:28:47.457Z,32.50
2019-02-25T03:31:18.814Z,31.97
2019-02-25T03:33:50.257Z,36.30
2019-02-25T03:36:21.604Z,33.85
2019-02-25T03:38:52.935Z,29.55
2019-02-25T03:41:24.404Z,33.83
2019-02-25T03:43:55.793Z,33.45
2019-02-25T03:46:27.083Z,32.75
2019-02-25T03:48:58.546Z,36.75
2019-02-25T03:51:29.869Z,32.38
2019-02-25T03:54:01.310Z,40.65
2019-02-25T03:56:32.788Z,43.58
2019-02-25T03:59:04.234Z,37.05
2019-02-25T04:01:35.704Z,39.25
2019-02-25T04:04:07.124Z,38.80
2019-02-25T04:06:38.518Z,40.45
2019-02-25T04:09:09.888Z,32.65
2019-02-25T04:11:41.228Z,39.55
2019-02-25T04:14:12.647Z,35.50
2019-02-25T04:16:44.067Z,31.70
2019-02-25T04:19:15.537Z,29.80
2019-02-25T04:21:46.987Z,38.38
2019-02-25T04:24:18.200Z,33.85
2019-02-25T04:26:50.728Z,41.75
2019-02-25T04:29:22.048Z,47.93
2019-02-25T04:31:53.462Z,32.50
2019-02-25T04:34:26.195Z,38.98
2019-02-25T04:36:57.634Z,36.48
2019-02-25T04:39:29.070Z,36.53
2019-02-25T04:42:00.408Z,34.53
2019-02-25T04:44:31.869Z,34.88
2019-02-25T04:47:03.345Z,27.95
2019-02-25T04:49:34.703Z,28.32
2019-02-25T04:52:06.122Z,27.98
2019-02-25T04:54:37.573Z,34.30
2019-02-25T04:57:09.031Z,27.70
2019-02-25T04:59:40.578Z,30.25
2019-02-25T05:02:12.028Z,34.92
2019-02-25T05:04:43.575Z,29.60
2019-02-25T05:07:15.030Z,28.52
2019-02-25T05:09:46.488Z,26.97
2019-02-25T05:12:17.891Z,36.68
2019-02-25T05:14:49.202Z,20.23
2019-02-25T05:17:20.555Z,31.37
2019-02-25T05:19:51.919Z,25.25
2019-02-25T05:22:23.265Z,40.38
2019-02-25T05:24:54.618Z,33.13
2019-02-25T05:27:25.977Z,33.73
2019-02-25T05:29:57.300Z,33.80
2019-02-25T05:32:28.699Z,27.15
2019-02-25T05:35:00.015Z,23.20
2019-02-25T05:37:31.443Z,30.37
2019-02-25T05:40:02.797Z,23.35
2019-02-25T05:42:34.216Z,22.45
2019-02-25T05:45:06.086Z,25.62
2019-02-25T05:47:37.449Z,28.77
2019-02-25T05:50:17.350Z,46.60
2019-02-25T05:52:48.822Z,37.93
2019-02-25T05:55:20.270Z,46.58
2019-02-25T05:57:51.646Z,36.83
2019-02-25T06:00:25.567Z,40.33
2019-02-25T06:02:56.977Z,32.30
2019-02-25T06:05:28.334Z,37.42
2019-02-25T06:07:59.794Z,33.30
2019-02-25T06:10:31.224Z,37.25
2019-02-25T06:13:03.674Z,37.63
2019-02-25T06:15:35.170Z,34.65
2019-02-25T06:18:06.704Z,41.13
2019-02-25T06:20:38.157Z,41.18
2019-02-25T06:23:09.614Z,36.48
2019-02-25T06:25:41.138Z,37.17
2019-02-25T06:28:12.491Z,40.40
2019-02-25T06:30:43.869Z,48.20
2019-02-25T06:33:15.321Z,55.63
2019-02-25T06:35:46.670Z,40.85
2019-02-25T06:38:18.092Z,47.48
2019-02-25T06:40:49.461Z,43.65
2019-02-25T06:43:20.899Z,37.10
2019-02-25T06:45:52.345Z,32.90
2019-02-25T06:48:23.642Z,37.73
2019-02-25T06:50:55.043Z,46.42
2019-02-25T06:53:26.379Z,43.15
2019-02-25T06:55:57.820Z,46.75
2019-02-25T06:58:29.287Z,44.58
2019-02-25T07:01:00.751Z,52.43
2019-02-25T07:03:32.189Z,36.25
2019-02-25T07:06:09.043Z,50.78
2019-02-25T07:08:44.914Z,46.83
2019-02-25T07:11:17.980Z,51.75
2019-02-25T07:14:07.396Z,59.33
2019-02-25T07:16:52.597Z,49.10
2019-02-25T07:19:37.629Z,51.83
2019-02-25T07:22:19.705Z,53.90
2019-02-25T07:24:53.188Z,46.40
2019-02-25T07:27:35.250Z,60.85
2019-02-25T07:30:23.306Z,55.80
2019-02-25T07:32:56.278Z,58.23
2019-02-25T07:35:41.422Z,59.45
2019-02-25T07:38:39.031Z,60.92
2019-02-25T07:41:14.255Z,54.58
2019-02-25T07:43:50.086Z,64.67
2019-02-25T07:46:32.117Z,59.38
2019-02-25T07:49:10.764Z,54.93
2019-02-25T07:51:49.421Z,95.92
2019-02-25T07:54:22.309Z,53.08
2019-02-25T07:57:01.316Z,54.20
2019-02-25T07:59:34.229Z,69.85
2019-02-25T08:02:08.345Z,53.38
2019-02-25T08:04:47.210Z,59.18
2019-02-25T08:07:36.549Z,44.03
2019-02-25T08:10:17.235Z,49.42
2019-02-25T08:12:50.138Z,43.00
2019-02-25T08:15:23.068Z,58.05
2019-02-25T08:18:06.263Z,37.53
2019-02-25T08:20:39.774Z,52.05
2019-02-25T08:23:12.706Z,43.75
2019-02-25T08:25:48.524Z,40.95
2019-02-25T08:28:39.416Z,41.05
2019-02-25T08:31:12.313Z,45.00
2019-02-25T08:33:45.207Z,39.45
2019-02-25T08:36:47.003Z,37.40
2019-02-25T08:39:20.039Z,45.30
2019-02-25T08:42:01.983Z,37.03
2019-02-25T08:44:46.525Z,50.05
2019-02-25T08:47:22.450Z,48.90
2019-02-25T08:49:55.399Z,47.17
2019-02-25T08:52:26.748Z,66.25
2019-02-25T08:54:58.221Z,52.58
2019-02-25T08:57:29.471Z,49.73
2019-02-25T09:00:00.928Z,47.95
2019-02-25T09:05:03.379Z,47.50
2019-02-25T09:07:34.832Z,33.85
2019-02-25T09:10:09.577Z,62.50
2019-02-25T09:12:40.955Z,77.58
2019-02-25T09:15:14.211Z,49.70
2019-02-25T09:17:45.384Z,44.03
2019-02-25T09:20:16.914Z,51.83
2019-02-25T09:22:48.310Z,50.55
2019-02-25T09:25:19.682Z,43.30
2019-02-25T09:27:51.172Z,57.40
2019-02-25T09:30:22.607Z,57.70
2019-02-25T09:32:54.067Z,45.70
2019-02-25T09:35:25.517Z,37.17
2019-02-25T09:37:56.862Z,46.00
2019-02-25T09:40:28.192Z,46.20
2019-02-25T09:42:59.657Z,62.58
2019-02-25T09:45:30.985Z,49.05
2019-02-25T09:48:02.320Z,46.25
2019-02-25T09:50:33.707Z,51.92
2019-02-25T09:53:07.184Z,42.90
2019-02-25T09:55:38.192Z,46.75
2019-02-25T09:58:09.654Z,49.77
2019-02-25T10:00:41.256Z,53.80
2019-02-25T10:03:13.793Z,42.83
2019-02-25T10:05:46.328Z,49.65
2019-02-25T10:08:17.916Z,45.95
2019-02-25T10:10:50.425Z,58.35
2019-02-25T10:13:21.867Z,65.72
2019-02-25T10:15:53.350Z,76.92
2019-02-25T10:18:24.766Z,60.73
2019-02-25T10:20:56.230Z,37.20
2019-02-25T10:23:27.526Z,41.63
2019-02-25T10:25:58.918Z,65.85
2019-02-25T10:28:30.508Z,56.83
2019-02-25T10:31:01.821Z,50.10
2019-02-25T10:33:33.277Z,45.12
2019-02-25T10:36:04.728Z,37.48
2019-02-25T10:38:37.577Z,47.83
2019-02-25T10:41:09.365Z,47.08
2019-02-25T10:43:40.846Z,57.33
2019-02-25T10:46:15.478Z,48.42
2019-02-25T10:48:47.444Z,58.30
2019-02-25T10:51:19.743Z,44.60
2019-02-25T10:53:51.997Z,51.08
2019-02-25T10:56:27.319Z,53.30
2019-02-25T10:59:00.171Z,50.50
2019-02-25T11:01:31.745Z,51.75
2019-02-25T11:04:03.162Z,54.70
2019-02-25T11:06:36.006Z,53.48
2019-02-25T11:09:22.959Z,57.35
2019-02-25T11:11:55.439Z,53.13
2019-02-25T11:14:27.291Z,52.98
2019-02-25T11:16:58.754Z,56.98
2019-02-25T11:19:30.769Z,51.85
2019-02-25T11:22:03.115Z,52.80
2019-02-25T11:24:35.565Z,51.85
2019-02-25T11:27:07.402Z,46.45
2019-02-25T11:32:10.978Z,54.23
2019-02-25T11:34:42.486Z,48.08
2019-02-25T11:37:14.555Z,41.92
2019-02-25T11:39:46.987Z,52.93
2019-02-25T11:42:20.531Z,55.95
2019-02-25T11:44:52.398Z,72.32
2019-02-25T11:47:24.711Z,57.27
2019-02-25T11:49:56.199Z,57.13
2019-02-25T11:52:27.553Z,57.03
2019-02-25T11:54:58.998Z,48.70
2019-02-25T11:57:31.388Z,55.43
2019-02-25T12:00:02.839Z,59.88
2019-02-25T12:05:08.839Z,57.90
2019-02-25T12:07:40.354Z,52.58
2019-02-25T12:10:13.818Z,47.88
2019-02-25T12:12:45.189Z,58.80
2019-02-25T12:15:23.887Z,54.48
2019-02-25T12:17:55.265Z,52.90
2019-02-25T12:20:26.718Z,42.93
2019-02-25T12:22:58.047Z,54.20
2019-02-25T12:25:29.803Z,54.48
2019-02-25T12:28:01.163Z,50.73
2019-02-25T12:30:32.643Z,56.60
2019-02-25T12:33:04.079Z,62.17
2019-02-25T12:35:35.380Z,63.90
2019-02-25T12:38:06.781Z,55.15
2019-02-25T12:40:38.224Z,49.93
2019-02-25T12:43:09.664Z,44.98
2019-02-25T12:45:42.455Z,48.35
2019-02-25T12:48:13.940Z,42.75
2019-02-25T12:50:45.551Z,56.48
2019-02-25T12:53:16.871Z,47.05
2019-02-25T12:55:48.358Z,115.85
2019-02-25T12:58:19.661Z,59.03
2019-02-25T13:00:51.028Z,55.40
2019-02-25T13:03:22.509Z,58.33
2019-02-25T13:05:54.972Z,56.42
2019-02-25T13:08:26.420Z,45.15
2019-02-25T13:10:57.735Z,54.58
2019-02-25T13:13:29.129Z,54.13
2019-02-25T13:16:00.660Z,63.90
2019-02-25T13:18:31.975Z,62.80
2019-02-25T13:21:03.290Z,58.33
2019-02-25T13:23:34.717Z,40.05
2019-02-25T13:26:07.426Z,58.75
2019-02-25T13:28:39.242Z,58.30
2019-02-25T13:31:10.710Z,68.97
2019-02-25T13:33:42.604Z,55.92
2019-02-25T13:36:14.101Z,49.18
2019-02-25T13:38:45.578Z,58.65
2019-02-25T13:41:17.023Z,59.65
2019-02-25T13:43:48.386Z,64.95
2019-02-25T13:46:19.704Z,62.38
2019-02-25T13:48:51.165Z,72.92
2019-02-25T13:51:22.696Z,71.60
2019-02-25T13:53:54.161Z,89.87
2019-02-25T13:56:25.605Z,76.33
2019-02-25T13:58:56.915Z,75.52
2019-02-25T14:01:28.984Z,71.28
2019-02-25T14:04:00.476Z,76.87
2019-02-25T14:06:31.927Z,61.88
2019-02-25T14:09:03.889Z,61.15
2019-02-25T14:11:36.875Z,70.20
2019-02-25T14:14:08.197Z,73.80
2019-02-25T14:16:39.543Z,68.35
2019-02-25T14:19:11.058Z,70.67
2019-02-25T14:21:42.427Z,76.75
2019-02-25T14:24:13.799Z,75.20
2019-02-25T14:26:45.260Z,75.57
2019-02-25T14:29:16.592Z,68.85
2019-02-25T14:31:48.952Z,77.47
2019-02-25T14:34:21.167Z,87.50
2019-02-25T14:36:54.425Z,94.07
2019-02-25T14:39:28.456Z,79.30
2019-02-25T14:41:59.215Z,79.58
2019-02-25T14:44:33.176Z,66.17
2019-02-25T14:47:05.453Z,64.92
2019-02-25T14:49:39.845Z,65.62
2019-02-25T14:52:11.091Z,72.37
2019-02-25T14:54:42.525Z,73.02
2019-02-25T14:57:13.942Z,62.78
2019-02-25T14:59:45.307Z,54.90
2019-02-25T15:02:17.774Z,64.87
2019-02-25T15:04:49.209Z,74.42
2019-02-25T15:07:20.651Z,65.78
2019-02-25T15:09:51.979Z,73.20
2019-02-25T15:12:23.663Z,62.38
2019-02-25T15:14:57.660Z,83.87
2019-02-25T15:17:29.590Z,79.37
2019-02-25T15:20:01.076Z,73.07
2019-02-25T15:22:36.181Z,67.25
2019-02-25T15:25:10.163Z,77.90
2019-02-25T15:27:41.487Z,80.00
2019-02-25T15:30:25.609Z,75.42
2019-02-25T15:32:58.906Z,84.00
2019-02-25T15:35:34.075Z,86.92
2019-02-25T15:38:04.172Z,87.55
2019-02-25T15:40:35.627Z,96.37
2019-02-25T15:43:15.867Z,99.03
2019-02-25T15:45:46.435Z,109.40
2019-02-25T15:48:22.238Z,108.78
2019-02-25T15:50:57.956Z,113.65
2019-02-25T15:53:28.538Z,98.22
2019-02-25T15:56:01.538Z,109.55
2019-02-25T15:58:32.937Z,102.55
2019-02-25T16:01:04.273Z,112.62
2019-02-25T16:03:36.810Z,111.60
2019-02-25T16:06:10.149Z,114.57
2019-02-25T16:08:42.100Z,112.47
2019-02-25T16:11:14.038Z,106.52
2019-02-25T16:13:46.666Z,113.10
2019-02-25T16:16:19.923Z,112.17
2019-02-25T16:18:53.492Z,122.17
2019-02-25T16:21:26.652Z,123.67
2019-02-25T16:23:59.615Z,131.27
2019-02-25T16:26:32.121Z,122.82
2019-02-25T16:29:06.618Z,107.87
2019-02-25T16:31:37.725Z,108.20
2019-02-25T16:34:12.051Z,103.20
2019-02-25T16:36:45.182Z,113.92
2019-02-25T16:39:17.714Z,153.62
2019-02-25T16:41:49.087Z,88.75
2019-02-25T16:44:20.441Z,107.92
2019-02-25T16:46:53.974Z,129.57
2019-02-25T16:49:25.006Z,115.30
2019-02-25T16:51:59.389Z,135.32
2019-02-25T16:54:30.603Z,118.82
2019-02-25T16:57:02.051Z,109.70
2019-02-25T16:59:33.409Z,82.15
2019-02-25T17:02:06.890Z,115.50
2019-02-25T17:04:37.827Z,116.80
2019-02-25T17:07:09.401Z,109.50
2019-02-25T17:09:42.808Z,129.07
2019-02-25T17:12:13.900Z,99.50
2019-02-25T17:17:16.315Z,133.05
2019-02-25T17:19:47.664Z,139.30
2019-02-25T17:22:18.969Z,102.12
2019-02-25T17:24:52.408Z,141.00
2019-02-25T17:27:23.432Z,146.90
2019-02-25T17:29:55.606Z,124.90
2019-02-25T17:32:27.959Z,110.97
2019-02-25T17:35:00.522Z,110.48
2019-02-25T17:37:33.831Z,101.95
2019-02-25T17:40:13.036Z,112.42
2019-02-25T17:42:44.952Z,97.37
2019-02-25T17:45:32.553Z,113.28
2019-02-25T17:48:08.081Z,99.77
2019-02-25T17:50:38.887Z,95.25
2019-02-25T17:53:11.469Z,104.63
2019-02-25T17:55:43.400Z,111.25
2019-02-25T17:58:15.596Z,102.82
2019-02-25T18:00:48.015Z,109.50
2019-02-25T18:03:19.551Z,119.35
2019-02-25T18:05:51.887Z,106.90
2019-02-25T18:08:23.307Z,133.47
2019-02-25T18:10:54.966Z,97.10
2019-02-25T18:13:28.162Z,108.42
2019-02-25T18:15:59.939Z,122.75
2019-02-25T18:18:31.324Z,142.10
2019-02-25T18:21:02.649Z,143.85
2019-02-25T18:23:34.461Z,134.20
2019-02-25T18:26:07.033Z,132.43
2019-02-25T18:28:39.706Z,135.93
2019-02-25T18:31:13.330Z,150.90
2019-02-25T18:33:46.251Z,141.40
2019-02-25T18:36:17.697Z,155.00
2019-02-25T18:38:50.669Z,140.57
2019-02-25T18:41:23.173Z,136.45
2019-02-25T18:43:55.542Z,142.43
2019-02-25T18:46:29.384Z,152.60
2019-02-25T18:49:03.016Z,140.18
2019-02-25T18:51:37.355Z,133.85
2019-02-25T18:54:08.486Z,137.43
2019-02-25T18:56:40.827Z,145.35
2019-02-25T18:59:15.492Z,143.43
2019-02-25T19:01:47.601Z,137.65
2019-02-25T19:04:19.822Z,138.45
2019-02-25T19:06:52.251Z,148.93
2019-02-25T19:09:25.553Z,117.55
2019-02-25T19:11:57.897Z,130.20
2019-02-25T19:14:31.146Z,113.55
2019-02-25T19:17:04.836Z,105.47
2019-02-25T19:19:38.172Z,102.85
2019-02-25T19:22:10.664Z,115.90
2019-02-25T19:24:42.829Z,108.07
2019-02-25T19:27:15.198Z,140.45
2019-02-25T19:29:49.197Z,96.95
2019-02-25T19:32:20.992Z,101.70
2019-02-25T19:34:54.092Z,125.72
2019-02-25T19:37:28.853Z,122.82
2019-02-25T19:39:59.035Z,105.05
2019-02-25T19:42:31.302Z,134.78
2019-02-25T19:45:05.785Z,128.40
2019-02-25T19:47:37.867Z,140.85
2019-02-25T19:50:18.927Z,125.20
2019-02-25T19:52:50.441Z,138.83
2019-02-25T19:55:23.474Z,112.32
2019-02-25T19:57:54.862Z,150.85
2019-02-25T20:00:29.746Z,159.15
2019-02-25T20:03:05.467Z,162.95
2019-02-25T20:05:38.886Z,167.95
2019-02-25T20:08:09.613Z,139.32
2019-02-25T20:10:42.850Z,155.43
2019-02-25T20:13:14.196Z,149.57
2019-02-25T20:15:46.788Z,170.72
2019-02-25T20:18:18.560Z,142.80
2019-02-25T20:20:50.297Z,152.00
2019-02-25T20:23:22.817Z,119.57
2019-02-25T20:25:55.743Z,161.12
2019-02-25T20:28:28.231Z,156.85
2019-02-25T20:30:59.978Z,154.35
2019-02-25T20:33:32.997Z,137.95
2019-02-25T20:36:04.504Z,145.25
2019-02-25T20:38:37.292Z,123.05
2019-02-25T20:41:09.070Z,127.72
2019-02-25T20:43:41.626Z,139.88
2019-02-25T20:46:13.009Z,96.78
2019-02-25T20:48:46.758Z,133.60
2019-02-25T20:51:17.511Z,131.60
2019-02-25T20:53:50.708Z,147.70
2019-02-25T20:56:22.466Z,136.97
2019-02-25T20:58:55.141Z,134.80
2019-02-25T21:01:27.439Z,146.30
2019-02-25T21:03:59.188Z,127.47
2019-02-25T21:06:30.633Z,111.25
2019-02-25T21:09:02.458Z,101.92
2019-02-25T21:11:36.698Z,109.05
2019-02-25T21:14:08.109Z,85.35
2019-02-25T21:16:39.414Z,107.10
2019-02-25T21:19:12.711Z,112.90
2019-02-25T21:21:43.937Z,101.90
2019-02-25T21:24:15.390Z,104.10
2019-02-25T21:26:46.665Z,98.12
2019-02-25T21:29:18.070Z,98.10
2019-02-25T21:31:50.046Z,111.45
2019-02-25T21:34:24.378Z,98.33
2019-02-25T21:36:56.278Z,88.35
2019-02-25T21:39:28.705Z,96.08
2019-02-25T21:42:00.023Z,89.92
2019-02-25T21:44:31.668Z,87.35
2019-02-25T21:47:03.789Z,96.55
2019-02-25T21:49:38.191Z,96.37
2019-02-25T21:52:10.866Z,102.82
2019-02-25T21:54:42.459Z,102.53
2019-02-25T21:57:14.589Z,101.40
2019-02-25T21:59:46.136Z,102.42
2019-02-25T22:02:18.586Z,108.20
2019-02-25T22:04:51.742Z,101.80
2019-02-25T22:07:25.001Z,103.62
2019-02-25T22:09:56.178Z,100.33
2019-02-25T22:12:30.849Z,95.57
2019-02-25T22:15:00.608Z,97.25
2019-02-25T22:17:32.112Z,104.43
2019-02-25T22:20:09.651Z,102.75
2019-02-25T22:22:40.267Z,93.62
2019-02-25T22:25:19.419Z,108.15
2019-02-25T22:27:50.668Z,111.22
2019-02-25T22:30:23.141Z,117.77
2019-02-25T22:32:54.557Z,111.62
2019-02-25T22:35:25.918Z,128.53
2019-02-25T22:37:58.171Z,111.42
2019-02-25T22:40:32.231Z,100.07
2019-02-25T22:43:03.529Z,117.82
2019-02-25T22:45:36.010Z,113.15
2019-02-25T22:48:07.939Z,103.27
2019-02-25T22:50:39.288Z,95.17
2019-02-25T22:53:11.287Z,102.72
2019-02-25T22:55:44.941Z,104.38
2019-02-25T22:58:17.058Z,106.15
2019-02-25T23:00:52.013Z,103.27
2019-02-25T23:03:25.766Z,101.35
2019-02-25T23:05:56.868Z,118.40
2019-02-25T23:08:28.360Z,99.55
2019-02-25T23:10:59.677Z,102.12
2019-02-25T23:13:32.012Z,107.75
2019-02-25T23:16:03.750Z,112.12
2019-02-25T23:18:35.097Z,108.27
2019-02-25T23:21:06.547Z,103.32
2019-02-25T23:23:40.042Z,130.43
2019-02-25T23:26:12.601Z,103.35
2019-02-25T23:28:44.158Z,113.42
2019-02-25T23:31:15.608Z,131.10
2019-02-25T23:33:48.871Z,116.62
2019-02-25T23:36:21.740Z,130.07
2019-02-25T23:38:54.842Z,127.80
2019-02-25T23:41:26.226Z,126.35
2019-02-25T23:43:57.697Z,140.30
2019-02-25T23:46:29.739Z,134.30
2019-02-25T23:49:02.224Z,138.50
2019-02-25T23:51:33.554Z,147.07
2019-02-25T23:54:04.907Z,135.93
2019-02-25T23:56:36.233Z,134.40
2019-02-25T23:59:10.782Z,113.12
